Time;durP1;ratioP1;P1;durP2;ratioP2;P2;SDS_P1;SDS_P2;PMS_P1;PMS_P2;Temp;Humidity;BMP_temperature;BMP_pressure;BME280_temperature;BME280_humidity;BME280_pressure;Samples;Min_cycle;Max_cycle;Signal;HPM_P1;HPM_P2
2023/10/12 00:02:27;;;;;;;9.87;4.67;;;;;;;;;;5105380;28;20464;-55
2023/10/12 00:04:59;;;;;;;8.95;3.92;;;;;;;;;;5099965;28;20048;-52
2023/10/12 00:07:34;;;;;;;12.70;4.72;;;;;;;;;;5107300;28;20532;-51
2023/10/12 00:10:20;;;;;;;7.63;4.32;;;;;;;;;;5109971;27;20048;-50
2023/10/12 00:12:47;;;;;;;9.57;4.38;;;;;;;;;;5109582;28;20501;-54
2023/10/12 00:15:23;;;;;;;8.70;4.60;;;;;;;;;;5114933;28;20505;-54
2023/10/12 00:17:51;;;;;;;7.88;3.78;;;;;;;;;;5102496;28;20062;-51
2023/10/12 00:20:22;;;;;;;8.45;4.18;;;;;;;;;;5093985;28;20055;-55
2023/10/12 00:22:50;;;;;;;8.98;4.32;;;;;;;;;;5105373;28;20101;-52
2023/10/12 00:25:17;;;;;;;7.88;3.72;;;;;;;;;;5107549;28;20406;-54
2023/10/12 00:27:44;;;;;;;9.93;4.20;;;;;;;;;;5108808;28;20050;-53
2023/10/12 00:30:12;;;;;;;9.35;4.15;;;;;;;;;;5108731;28;20074;-53
2023/10/12 00:32:39;;;;;;;10.65;4.43;;;;;;;;;;5094604;28;20044;-50
2023/10/12 00:35:10;;;;;;;10.60;4.22;;;;;;;;;;5093576;28;20082;-53
2023/10/12 00:37:41;;;;;;;8.07;4.22;;;;;;;;;;5096669;28;20051;-50
2023/10/12 00:40:25;;;;;;;11.20;4.55;;;;;;;;;;5109081;28;20048;-50
2023/10/12 00:42:52;;;;;;;8.88;3.90;;;;;;;;;;5107129;28;20142;-51
2023/10/12 00:45:27;;;;;;;7.97;4.15;;;;;;;;;;5107881;28;20096;-53
2023/10/12 00:47:56;;;;;;;9.38;4.43;;;;;;;;;;5107356;28;20109;-52
2023/10/12 00:50:27;;;;;;;12.20;4.55;;;;;;;;;;5108015;28;20043;-56
2023/10/12 00:52:56;;;;;;;7.28;3.83;;;;;;;;;;5105126;28;20040;-55
2023/10/12 00:55:35;;;;;;;10.88;4.10;;;;;;;;;;5106960;28;20051;-55
2023/10/12 00:58:03;;;;;;;8.38;3.58;;;;;;;;;;5093296;28;20454;-54
2023/10/12 01:00:35;;;;;;;8.43;4.35;;;;;;;;;;5098860;28;20040;-54
2023/10/12 01:03:27;;;;;;;8.85;3.92;;;;;;;;;;5104069;28;20046;-52
2023/10/12 01:06:12;;;;;;;8.63;3.67;;;;;;;;;;5106112;28;20051;-50
2023/10/12 01:08:43;;;;;;;8.98;4.35;;;;;;;;;;5112870;28;20071;-50
2023/10/12 01:11:19;;;;;;;9.95;4.00;;;;;;;;;;5106620;28;20059;-50
2023/10/12 01:13:48;;;;;;;10.35;4.03;;;;;;;;;;5107338;28;20044;-50
2023/10/12 01:16:23;;;;;;;12.43;3.78;;;;;;;;;;5113148;28;20051;-54
2023/10/12 01:18:57;;;;;;;8.82;3.90;;;;;;;;;;5112841;28;20062;-54
2023/10/12 01:21:23;;;;;;;9.00;4.82;;;;;;;;;;5112933;28;20055;-52
2023/10/12 01:23:51;;;;;;;9.10;4.13;;;;;;;;;;5113191;28;20130;-55
2023/10/12 01:26:18;;;;;;;10.50;3.83;;;;;;;;;;5113209;28;20043;-51
2023/10/12 01:28:49;;;;;;;10.02;4.00;;;;;;;;;;5113163;28;20048;-53
2023/10/12 01:31:25;;;;;;;9.27;3.65;;;;;;;;;;5112945;28;20051;-50
2023/10/12 01:33:54;;;;;;;12.20;3.92;;;;;;;;;;5112797;28;20082;-50
2023/10/12 01:36:22;;;;;;;9.65;4.28;;;;;;;;;;5106790;28;20044;-56
2023/10/12 01:38:56;;;;;;;10.60;4.82;;;;;;;;;;5095022;28;20044;-50
2023/10/12 01:41:26;;;;;;;9.82;4.15;;;;;;;;;;5092423;28;20076;-55
2023/10/12 01:43:53;;;;;;;8.43;3.80;;;;;;;;;;5092316;28;20047;-51
2023/10/12 01:46:22;;;;;;;10.95;3.78;;;;;;;;;;5092189;28;20408;-52
2023/10/12 01:48:49;;;;;;;9.45;3.47;;;;;;;;;;5100493;28;20076;-50
2023/10/12 01:51:24;;;;;;;10.45;3.78;;;;;;;;;;5092071;28;20040;-52
2023/10/12 01:53:54;;;;;;;13.82;4.50;;;;;;;;;;5098714;28;20469;-50
2023/10/12 01:56:21;;;;;;;9.73;3.75;;;;;;;;;;5092404;28;20040;-53
2023/10/12 01:58:50;;;;;;;11.27;4.30;;;;;;;;;;5091848;28;20079;-50
2023/10/12 02:01:20;;;;;;;10.70;3.80;;;;;;;;;;5092037;28;20391;-52
2023/10/12 02:03:48;;;;;;;9.20;3.42;;;;;;;;;;5092272;28;20407;-53
2023/10/12 02:06:16;;;;;;;9.98;4.05;;;;;;;;;;5098277;28;20518;-54
2023/10/12 02:08:49;;;;;;;9.10;4.18;;;;;;;;;;5103164;28;20048;-54
2023/10/12 02:11:42;;;;;;;9.07;4.57;;;;;;;;;;5091585;28;20457;-52
2023/10/12 02:14:11;;;;;;;11.10;4.50;;;;;;;;;;5107020;28;20059;-54
2023/10/12 02:16:38;;;;;;;9.98;3.83;;;;;;;;;;5112212;28;20039;-52
2023/10/12 02:19:05;;;;;;;8.93;4.20;;;;;;;;;;5112185;28;20094;-50
2023/10/12 02:21:33;;;;;;;7.63;4.03;;;;;;;;;;5110536;28;20082;-53
2023/10/12 02:24:14;;;;;;;11.07;4.40;;;;;;;;;;5112011;28;20044;-55
2023/10/12 02:26:52;;;;;;;7.63;3.35;;;;;;;;;;5112069;28;20047;-52
2023/10/12 02:29:20;;;;;;;6.72;3.55;;;;;;;;;;5111922;28;20100;-51
2023/10/12 02:31:58;;;;;;;11.88;4.72;;;;;;;;;;5111108;28;20089;-50
2023/10/12 02:34:26;;;;;;;9.50;4.20;;;;;;;;;;5111070;28;20047;-50
2023/10/12 02:37:07;;;;;;;9.82;3.83;;;;;;;;;;5104708;28;20044;-49
2023/10/12 02:39:37;;;;;;;13.15;4.57;;;;;;;;;;5105091;28;20039;-49
2023/10/12 02:42:16;;;;;;;;;;;;;;;;;;5105351;28;20495;-50
2023/10/12 02:44:50;;;;;;;8.48;3.88;;;;;;;;;;5095302;28;19927;-49
2023/10/12 02:47:21;;;;;;;10.10;3.67;;;;;;;;;;5105049;28;20054;-53
2023/10/12 02:49:47;;;;;;;9.35;4.30;;;;;;;;;;5091516;28;20048;-49
2023/10/12 02:52:15;;;;;;;9.48;3.83;;;;;;;;;;5091167;28;20189;-50
2023/10/12 02:54:49;;;;;;;9.25;3.95;;;;;;;;;;5091398;28;20048;-49
2023/10/12 02:57:21;;;;;;;9.60;3.72;;;;;;;;;;5091239;28;20048;-48
2023/10/12 02:59:56;;;;;;;7.82;3.85;;;;;;;;;;5091386;28;20435;-49
2023/10/12 03:02:24;;;;;;;11.35;3.95;;;;;;;;;;5091108;28;20055;-49
2023/10/12 03:04:51;;;;;;;9.52;4.30;;;;;;;;;;5091395;28;20052;-49
2023/10/12 03:07:22;;;;;;;8.88;3.70;;;;;;;;;;5094913;28;20105;-49
2023/10/12 03:09:55;;;;;;;8.40;4.13;;;;;;;;;;5099465;28;20047;-50
2023/10/12 03:12:24;;;;;;;7.78;3.67;;;;;;;;;;5091123;28;20097;-50
2023/10/12 03:14:51;;;;;;;9.70;4.18;;;;;;;;;;5091181;28;20052;-50
2023/10/12 03:17:18;;;;;;;8.60;3.70;;;;;;;;;;5091293;28;20419;-50
2023/10/12 03:19:48;;;;;;;9.13;4.10;;;;;;;;;;5091198;28;20044;-49
2023/10/12 03:22:25;;;;;;;9.40;3.77;;;;;;;;;;5090892;28;20059;-50
2023/10/12 03:24:52;;;;;;;7.40;3.72;;;;;;;;;;5103974;28;20644;-54
2023/10/12 03:27:23;;;;;;;8.40;4.05;;;;;;;;;;5111553;28;20139;-50
2023/10/12 03:30:06;;;;;;;6.97;3.50;;;;;;;;;;5106800;28;20056;-52
2023/10/12 03:32:33;;;;;;;10.75;4.68;;;;;;;;;;5102952;28;20052;-53
2023/10/12 03:35:00;;;;;;;7.00;3.60;;;;;;;;;;5098870;28;20070;-47
2023/10/12 03:37:47;;;;;;;8.43;3.78;;;;;;;;;;5103308;28;20047;-53
2023/10/12 03:43:05;;;;;;;10.82;4.85;;;;;;;;;;5106898;28;20587;-51
2023/10/12 03:45:34;;;;;;;9.25;4.30;;;;;;;;;;5106993;28;20509;-49
2023/10/12 03:53:41;;;;;;;10.27;4.13;;;;;;;;;;5092012;28;20046;-51
2023/10/12 03:56:10;;;;;;;9.18;4.13;;;;;;;;;;5108330;28;20064;-51
2023/10/12 03:58:40;;;;;;;6.93;3.88;;;;;;;;;;5103905;28;20085;-50
2023/10/12 04:01:13;;;;;;;11.13;4.15;;;;;;;;;;5100184;28;20097;-50
2023/10/12 04:03:43;;;;;;;5.63;3.00;;;;;;;;;;5106365;28;20050;-49
2023/10/12 04:06:15;;;;;;;8.35;3.80;;;;;;;;;;5107362;28;20043;-53
2023/10/12 04:08:46;;;;;;;6.85;3.28;;;;;;;;;;5107113;28;20052;-51
2023/10/12 04:17:07;;;;;;;8.82;3.85;;;;;;;;;;5098504;28;20415;-49
2023/10/12 04:19:34;;;;;;;9.50;3.90;;;;;;;;;;5104494;28;20040;-50
2023/10/12 04:22:16;;;;;;;7.47;3.83;;;;;;;;;;5093764;28;20515;-49
2023/10/12 04:24:43;;;;;;;8.70;3.88;;;;;;;;;;5093683;28;20050;-56
2023/10/12 04:27:24;;;;;;;12.20;4.53;;;;;;;;;;5093959;28;20056;-55
2023/10/12 04:29:56;;;;;;;7.00;3.33;;;;;;;;;;5106236;28;20517;-54
2023/10/12 04:32:53;;;;;;;7.32;3.42;;;;;;;;;;5113992;28;20054;-55
2023/10/12 04:35:34;;;;;;;8.25;3.53;;;;;;;;;;5114203;28;20232;-57
2023/10/12 04:38:23;;;;;;;9.93;3.35;;;;;;;;;;5114268;28;20079;-53
2023/10/12 04:43:31;;;;;;;11.43;4.68;;;;;;;;;;5112698;28;20058;-58
2023/10/12 04:46:26;;;;;;;8.77;3.72;;;;;;;;;;5113974;28;20055;-54
2023/10/12 04:49:12;;;;;;;10.70;4.18;;;;;;;;;;5110254;28;20047;-58
2023/10/12 04:51:40;;;;;;;7.40;3.63;;;;;;;;;;5093366;28;20059;-56
2023/10/12 04:54:16;;;;;;;8.90;3.58;;;;;;;;;;5095855;28;20123;-54
2023/10/12 04:56:55;;;;;;;8.55;4.20;;;;;;;;;;5110771;28;20516;-57
2023/10/12 04:59:29;;;;;;;7.20;3.72;;;;;;;;;;5110648;28;20128;-55
2023/10/12 05:02:15;;;;;;;8.75;4.18;;;;;;;;;;5101515;28;20048;-53
2023/10/12 05:05:14;;;;;;;10.40;3.92;;;;;;;;;;5100467;28;20046;-55
2023/10/12 05:10:25;;;;;;;;;;;;;;;;;;5106007;28;20411;-56
2023/10/12 05:12:52;;;;;;;7.90;4.07;;;;;;;;;;5097469;28;19920;-56
2023/10/12 05:15:20;;;;;;;10.52;4.35;;;;;;;;;;5104840;28;20410;-56
2023/10/12 05:17:47;;;;;;;8.77;3.92;;;;;;;;;;5104871;28;20048;-55
2023/10/12 05:20:20;;;;;;;9.32;4.20;;;;;;;;;;5106336;28;20062;-53
2023/10/12 05:22:47;;;;;;;8.98;4.68;;;;;;;;;;5108409;28;20048;-52
2023/10/12 05:25:12;;;;;;;11.48;5.38;;;;;;;;;;5110972;28;20050;-52
2023/10/12 05:27:39;;;;;;;9.73;4.93;;;;;;;;;;5111425;28;20044;-54
2023/10/12 05:30:16;;;;;;;9.20;4.55;;;;;;;;;;5098980;28;20533;-57
2023/10/12 05:32:43;;;;;;;10.30;4.70;;;;;;;;;;5101500;28;20048;-57
2023/10/12 05:35:15;;;;;;;10.15;3.97;;;;;;;;;;5106235;28;20495;-56
2023/10/12 05:37:48;;;;;;;14.75;4.65;;;;;;;;;;5112341;28;20075;-58
2023/10/12 05:40:16;;;;;;;8.45;4.60;;;;;;;;;;5113177;28;20458;-56
2023/10/12 05:42:46;;;;;;;11.27;4.75;;;;;;;;;;5093209;28;20131;-55
2023/10/12 05:45:21;;;;;;;10.15;5.13;;;;;;;;;;5097058;28;20480;-56
2023/10/12 05:47:51;;;;;;;9.52;4.18;;;;;;;;;;5112578;28;20093;-53
2023/10/12 05:50:23;;;;;;;11.02;4.72;;;;;;;;;;5103432;28;20048;-53
2023/10/12 05:52:53;;;;;;;10.20;4.28;;;;;;;;;;5111096;28;20490;-54
2023/10/12 05:55:21;;;;;;;9.80;4.47;;;;;;;;;;5109609;28;20465;-52
2023/10/12 05:57:48;;;;;;;9.68;4.32;;;;;;;;;;5111583;28;20047;-56
2023/10/12 06:00:18;;;;;;;9.95;3.75;;;;;;;;;;5112214;28;20044;-54
2023/10/12 06:02:45;;;;;;;6.65;3.33;;;;;;;;;;5111311;28;20156;-58
2023/10/12 06:05:13;;;;;;;8.90;4.95;;;;;;;;;;5111565;28;20039;-57
2023/10/12 06:07:39;;;;;;;10.00;4.70;;;;;;;;;;5112217;28;20054;-58
2023/10/12 06:10:09;;;;;;;10.90;4.55;;;;;;;;;;5112005;28;20126;-57
2023/10/12 06:12:35;;;;;;;9.93;4.20;;;;;;;;;;5111883;28;20415;-57
2023/10/12 06:15:08;;;;;;;9.45;4.35;;;;;;;;;;5112025;28;20047;-57
2023/10/12 06:17:39;;;;;;;12.20;4.75;;;;;;;;;;5112204;28;20047;-58
2023/10/12 06:20:11;;;;;;;10.75;4.28;;;;;;;;;;5112315;28;20533;-57
2023/10/12 06:22:38;;;;;;;11.05;4.95;;;;;;;;;;5112029;28;20078;-58
2023/10/12 06:25:11;;;;;;;9.50;4.25;;;;;;;;;;5109829;28;20043;-58
2023/10/12 06:27:38;;;;;;;7.65;4.38;;;;;;;;;;5111760;28;20055;-58
2023/10/12 06:30:16;;;;;;;11.75;4.22;;;;;;;;;;5111835;28;20047;-58
2023/10/12 06:32:46;;;;;;;8.05;3.83;;;;;;;;;;5108393;28;20063;-55
2023/10/12 06:35:23;;;;;;;9.68;4.25;;;;;;;;;;5105327;28;20043;-55
2023/10/12 06:37:59;;;;;;;9.05;4.22;;;;;;;;;;5111605;28;20134;-58
2023/10/12 06:40:37;;;;;;;8.35;3.80;;;;;;;;;;5112369;28;20387;-58
2023/10/12 06:45:51;;;;;;;7.95;3.80;;;;;;;;;;5100293;28;20059;-57
2023/10/12 06:48:23;;;;;;;7.65;4.45;;;;;;;;;;5107358;28;21066;-58
2023/10/12 06:50:53;;;;;;;8.25;4.43;;;;;;;;;;5108700;28;20094;-58
2023/10/12 06:53:26;;;;;;;8.60;4.68;;;;;;;;;;5104179;28;20121;-56
2023/10/12 06:55:58;;;;;;;8.50;4.18;;;;;;;;;;5104111;28;20487;-55
2023/10/12 06:58:36;;;;;;;10.57;4.40;;;;;;;;;;5114278;28;20551;-56
2023/10/12 07:01:18;;;;;;;11.63;5.53;;;;;;;;;;5110909;28;20048;-55
2023/10/12 07:03:47;;;;;;;8.52;4.05;;;;;;;;;;5108206;28;20052;-57
2023/10/12 07:06:15;;;;;;;10.10;4.55;;;;;;;;;;5110333;28;20047;-54
2023/10/12 07:08:42;;;;;;;9.10;4.40;;;;;;;;;;5102719;28;20070;-57
2023/10/12 07:11:13;;;;;;;8.52;4.22;;;;;;;;;;5104880;28;20487;-55
2023/10/12 07:13:41;;;;;;;10.60;4.63;;;;;;;;;;5091105;28;20410;-54
2023/10/12 07:16:08;;;;;;;10.55;4.03;;;;;;;;;;5091601;28;20083;-57
2023/10/12 07:18:35;;;;;;;11.40;4.82;;;;;;;;;;5105263;28;20403;-55
2023/10/12 07:21:05;;;;;;;9.27;5.30;;;;;;;;;;5115895;28;20130;-58
2023/10/12 07:23:35;;;;;;;14.10;5.55;;;;;;;;;;5110443;27;20048;-54
2023/10/12 07:26:08;;;;;;;;;;;;;;;;;;5112183;28;20047;-57
2023/10/12 07:28:39;;;;;;;10.32;4.47;;;;;;;;;;5111288;28;19920;-55
2023/10/12 07:33:58;;;;;;;12.38;4.10;;;;;;;;;;5111743;28;20051;-58
2023/10/12 07:36:37;;;;;;;10.38;4.07;;;;;;;;;;5111481;28;20063;-57
2023/10/12 07:39:17;;;;;;;8.55;4.40;;;;;;;;;;5111952;28;20474;-56
2023/10/12 07:41:53;;;;;;;9.55;4.18;;;;;;;;;;5112717;28;20051;-57
2023/10/12 07:44:23;;;;;;;11.93;5.15;;;;;;;;;;5109095;28;20142;-57
2023/10/12 07:46:49;;;;;;;9.00;3.97;;;;;;;;;;5111756;28;20510;-57
2023/10/12 07:49:26;;;;;;;10.52;4.60;;;;;;;;;;5111890;28;20139;-55
2023/10/12 07:52:07;;;;;;;7.15;3.40;;;;;;;;;;5112737;28;20604;-58
2023/10/12 07:54:55;;;;;;;;;;;;;;;;;;5112183;28;20044;-55
2023/10/12 07:57:24;;;;;;;10.45;4.15;;;;;;;;;;5109367;28;19981;-57
2023/10/12 07:59:59;;;;;;;8.65;3.97;;;;;;;;;;5111271;28;20531;-58
2023/10/12 08:02:59;;;;;;;9.23;3.63;;;;;;;;;;5111991;28;20329;-58
2023/10/12 08:05:41;;;;;;;8.77;3.95;;;;;;;;;;5109728;28;20054;-54
2023/10/12 08:08:08;;;;;;;10.80;3.95;;;;;;;;;;5111658;28;20044;-57
2023/10/12 08:10:56;;;;;;;11.02;4.40;;;;;;;;;;5112328;28;20131;-53
2023/10/12 08:13:27;;;;;;;11.35;4.57;;;;;;;;;;5114275;28;20134;-58
2023/10/12 08:15:59;;;;;;;8.65;4.00;;;;;;;;;;5112085;28;20043;-58
2023/10/12 08:21:23;;;;;;;8.07;3.70;;;;;;;;;;5112061;28;20173;-58
2023/10/12 08:23:56;;;;;;;9.27;3.65;;;;;;;;;;5109857;28;20052;-56
2023/10/12 08:26:35;;;;;;;8.82;3.85;;;;;;;;;;5114149;28;20069;-57
2023/10/12 08:29:09;;;;;;;7.93;3.58;;;;;;;;;;5105837;28;20392;-56
2023/10/12 08:31:43;;;;;;;9.10;3.92;;;;;;;;;;5112192;28;20051;-59
2023/10/12 08:34:41;;;;;;;8.57;3.55;;;;;;;;;;5110117;28;20051;-55
2023/10/12 08:37:17;;;;;;;7.55;3.45;;;;;;;;;;5111524;28;20047;-52
2023/10/12 08:39:50;;;;;;;11.52;4.50;;;;;;;;;;5112004;28;20517;-52
2023/10/12 08:42:36;;;;;;;12.98;3.80;;;;;;;;;;5114053;28;20046;-51
2023/10/12 08:45:08;;;;;;;7.93;3.30;;;;;;;;;;5111645;28;20139;-49
2023/10/12 08:47:44;;;;;;;9.82;3.47;;;;;;;;;;5108916;28;20121;-50
2023/10/12 08:50:47;;;;;;;10.07;3.47;;;;;;;;;;5113051;28;20067;-49
2023/10/12 08:53:03;;;;;;;9.68;3.67;;;;;;;;;;5111371;28;20326;-51
2023/10/12 08:55:32;;;;;;;7.40;3.42;;;;;;;;;;5113676;28;20047;-50
2023/10/12 08:58:11;;;;;;;9.43;3.85;;;;;;;;;;5111850;28;20123;-54
2023/10/12 09:00:44;;;;;;;7.55;3.83;;;;;;;;;;5111582;28;20093;-52
2023/10/12 09:03:29;;;;;;;9.73;3.67;;;;;;;;;;5108050;28;20513;-53
2023/10/12 09:05:58;;;;;;;11.13;4.20;;;;;;;;;;5110426;28;20054;-51
2023/10/12 09:08:41;;;;;;;8.85;3.83;;;;;;;;;;5113407;28;20051;-50
2023/10/12 09:11:13;;;;;;;11.48;4.55;;;;;;;;;;5105712;28;20459;-49
2023/10/12 09:13:45;;;;;;;8.50;3.70;;;;;;;;;;5112671;28;20054;-49
2023/10/12 09:16:14;;;;;;;11.43;3.83;;;;;;;;;;5111524;28;20040;-53
2023/10/12 09:18:46;;;;;;;8.02;3.70;;;;;;;;;;5108828;28;20063;-50
2023/10/12 09:21:27;;;;;;;8.27;3.83;;;;;;;;;;5111420;28;20069;-50
2023/10/12 09:24:05;;;;;;;9.38;3.78;;;;;;;;;;5109525;28;20127;-50
2023/10/12 09:26:33;;;;;;;8.18;3.47;;;;;;;;;;5104772;28;20048;-52
2023/10/12 09:29:13;;;;;;;7.53;4.00;;;;;;;;;;5113186;28;20078;-53
2023/10/12 09:31:54;;;;;;;10.60;4.35;;;;;;;;;;5113090;28;20071;-52
2023/10/12 09:37:06;;;;;;;8.48;4.18;;;;;;;;;;5107322;28;20223;-53
2023/10/12 09:39:34;;;;;;;8.88;4.05;;;;;;;;;;5109919;28;20057;-50
2023/10/12 09:42:13;;;;;;;9.50;4.15;;;;;;;;;;5109726;28;20105;-53
2023/10/12 09:44:42;;;;;;;9.18;3.83;;;;;;;;;;5109130;28;20113;-53
2023/10/12 09:47:15;;;;;;;8.55;4.07;;;;;;;;;;5103432;28;20098;-52
2023/10/12 09:49:53;;;;;;;8.15;3.90;;;;;;;;;;5102332;28;20464;-54
2023/10/12 09:52:24;;;;;;;8.25;3.80;;;;;;;;;;5109179;28;20667;-52
2023/10/12 09:54:55;;;;;;;8.70;4.13;;;;;;;;;;5108972;28;20054;-53
2023/10/12 09:57:26;;;;;;;7.53;4.00;;;;;;;;;;5110329;28;20043;-52
2023/10/12 09:59:53;;;;;;;;;;;;;;;;;;5110400;28;20075;-53
2023/10/12 10:02:30;;;;;;;7.20;3.80;;;;;;;;;;5111625;28;19923;-53
2023/10/12 10:05:11;;;;;;;11.63;4.18;;;;;;;;;;5108797;28;20051;-55
2023/10/12 10:07:49;;;;;;;8.65;3.95;;;;;;;;;;5111330;28;20505;-54
2023/10/12 10:10:27;;;;;;;8.30;3.88;;;;;;;;;;5105970;28;20139;-54
2023/10/12 10:12:54;;;;;;;8.73;4.13;;;;;;;;;;5109092;28;20499;-54
2023/10/12 10:15:23;;;;;;;6.53;3.90;;;;;;;;;;5109506;28;20046;-52
2023/10/12 10:17:53;;;;;;;9.93;4.50;;;;;;;;;;5109127;28;20093;-52
2023/10/12 10:23:14;;;;;;;8.02;3.72;;;;;;;;;;5103139;28;20059;-54
2023/10/12 10:25:46;;;;;;;11.68;4.68;;;;;;;;;;5108315;28;20425;-54
2023/10/12 10:28:18;;;;;;;11.18;4.63;;;;;;;;;;5109521;28;20160;-51
2023/10/12 10:30:49;;;;;;;8.80;4.43;;;;;;;;;;5106407;28;20050;-54
2023/10/12 10:33:22;;;;;;;13.00;4.85;;;;;;;;;;5106846;28;20047;-51
2023/10/12 10:36:05;;;;;;;9.13;4.57;;;;;;;;;;5108351;28;20467;-52
2023/10/12 10:38:33;;;;;;;10.02;4.38;;;;;;;;;;5110902;28;20483;-53
2023/10/12 10:41:07;;;;;;;8.82;4.85;;;;;;;;;;5110991;28;20046;-50
2023/10/12 10:43:37;;;;;;;8.07;4.35;;;;;;;;;;5103368;28;20484;-54
2023/10/12 10:46:06;;;;;;;10.40;4.40;;;;;;;;;;5105166;28;20100;-58
2023/10/12 10:48:36;;;;;;;9.35;4.35;;;;;;;;;;5105766;28;20126;-51
2023/10/12 10:51:07;;;;;;;;;;;;;;;;;;5104338;28;20054;-54
2023/10/12 10:53:37;;;;;;;7.82;4.25;;;;;;;;;;5101824;28;19924;-52
2023/10/12 10:56:13;;;;;;;7.63;3.88;;;;;;;;;;5106539;28;20039;-51
2023/10/12 10:58:40;;;;;;;10.93;4.20;;;;;;;;;;5111292;28;20049;-53
2023/10/12 11:01:12;;;;;;;9.38;4.50;;;;;;;;;;5111034;28;20102;-53
2023/10/12 11:03:39;;;;;;;10.77;4.93;;;;;;;;;;5111199;28;20047;-50
2023/10/12 11:06:18;;;;;;;8.60;4.43;;;;;;;;;;5111132;28;20047;-52
2023/10/12 11:08:53;;;;;;;10.68;4.50;;;;;;;;;;5110654;28;20078;-53
2023/10/12 11:11:26;;;;;;;12.77;4.60;;;;;;;;;;5106329;28;20047;-54
2023/10/12 11:13:55;;;;;;;12.63;4.55;;;;;;;;;;5103759;28;20044;-53
2023/10/12 11:16:28;;;;;;;8.77;4.13;;;;;;;;;;5108731;28;20050;-50
2023/10/12 11:18:57;;;;;;;11.43;4.10;;;;;;;;;;5103970;28;20109;-48
2023/10/12 11:21:26;;;;;;;11.45;4.65;;;;;;;;;;5099555;28;20105;-50
2023/10/12 11:24:04;;;;;;;9.60;4.25;;;;;;;;;;5108681;28;20051;-51
2023/10/12 11:26:39;;;;;;;7.15;4.15;;;;;;;;;;5105254;28;20575;-50
2023/10/12 11:29:10;;;;;;;9.93;4.35;;;;;;;;;;5101942;28;20253;-51
2023/10/12 11:31:37;;;;;;;10.05;4.38;;;;;;;;;;5107816;28;20039;-55
2023/10/12 11:34:07;;;;;;;10.18;4.80;;;;;;;;;;5107772;28;20048;-53
2023/10/12 11:36:36;;;;;;;11.17;5.03;;;;;;;;;;5107923;28;20396;-51
2023/10/12 11:39:10;;;;;;;11.02;4.88;;;;;;;;;;5108360;28;20502;-52
2023/10/12 11:41:37;;;;;;;9.80;4.43;;;;;;;;;;5108223;28;20054;-53
2023/10/12 11:44:07;;;;;;;12.20;4.60;;;;;;;;;;5099490;28;20048;-50
2023/10/12 11:46:43;;;;;;;9.98;4.55;;;;;;;;;;5104740;28;20518;-55
2023/10/12 11:49:10;;;;;;;8.75;5.28;;;;;;;;;;5105474;28;20051;-54
2023/10/12 11:51:42;;;;;;;8.30;4.32;;;;;;;;;;5106691;28;20075;-51
2023/10/12 11:54:19;;;;;;;9.63;4.32;;;;;;;;;;5107816;28;20445;-51
2023/10/12 11:56:49;;;;;;;9.85;4.68;;;;;;;;;;5110040;28;20089;-51
2023/10/12 11:59:22;;;;;;;10.57;4.82;;;;;;;;;;5106247;28;20044;-52
2023/10/12 12:01:51;;;;;;;8.57;4.22;;;;;;;;;;5102456;28;20464;-54
2023/10/12 12:04:24;;;;;;;6.60;4.35;;;;;;;;;;5114715;28;20152;-52
2023/10/12 12:06:53;;;;;;;8.75;4.28;;;;;;;;;;5102855;28;20048;-54
2023/10/12 12:09:22;;;;;;;9.85;5.35;;;;;;;;;;5106114;28;20104;-51
2023/10/12 12:11:49;;;;;;;13.38;4.82;;;;;;;;;;5114633;28;20399;-53
2023/10/12 12:14:15;;;;;;;8.98;4.15;;;;;;;;;;5109354;28;20044;-54
2023/10/12 12:16:42;;;;;;;8.88;4.53;;;;;;;;;;5113759;28;20127;-51
2023/10/12 12:19:17;;;;;;;9.10;4.60;;;;;;;;;;5112970;28;20154;-50
2023/10/12 12:21:45;;;;;;;8.77;4.93;;;;;;;;;;5103842;28;20044;-52
2023/10/12 12:24:21;;;;;;;9.82;4.25;;;;;;;;;;5107500;28;20039;-54
2023/10/12 12:26:49;;;;;;;9.82;3.88;;;;;;;;;;5108503;28;20040;-52
2023/10/12 12:29:21;;;;;;;10.43;4.70;;;;;;;;;;5102197;28;20093;-51
2023/10/12 12:31:48;;;;;;;12.70;4.72;;;;;;;;;;5101027;28;20044;-51
2023/10/12 12:34:34;;;;;;;9.88;4.38;;;;;;;;;;5105208;28;20058;-53
2023/10/12 12:37:04;;;;;;;11.10;4.18;;;;;;;;;;5093585;28;20078;-53
2023/10/12 12:39:34;;;;;;;9.40;4.43;;;;;;;;;;5111274;28;20055;-50
2023/10/12 12:42:00;;;;;;;10.88;4.68;;;;;;;;;;5113932;28;20047;-53
2023/10/12 12:44:27;;;;;;;8.38;4.32;;;;;;;;;;5101455;28;20043;-53
2023/10/12 12:46:54;;;;;;;10.15;4.25;;;;;;;;;;5108128;28;20063;-51
2023/10/12 12:49:20;;;;;;;10.98;4.53;;;;;;;;;;5105535;28;20100;-55
2023/10/12 12:51:49;;;;;;;9.38;4.75;;;;;;;;;;5109701;28;20052;-50
2023/10/12 12:54:16;;;;;;;6.75;3.88;;;;;;;;;;5108674;28;20503;-56
2023/10/12 12:56:44;;;;;;;10.40;4.78;;;;;;;;;;5108146;28;20130;-50
2023/10/12 12:59:11;;;;;;;10.63;5.47;;;;;;;;;;5112114;28;20047;-51
2023/10/12 13:01:39;;;;;;;8.88;4.40;;;;;;;;;;5113319;28;20040;-49
2023/10/12 13:04:05;;;;;;;8.88;4.43;;;;;;;;;;5108710;28;20055;-50
2023/10/12 13:06:33;;;;;;;9.27;4.57;;;;;;;;;;5108960;28;20126;-51
2023/10/12 13:09:01;;;;;;;11.43;4.97;;;;;;;;;;5109180;28;20134;-52
2023/10/12 13:11:28;;;;;;;10.45;4.25;;;;;;;;;;5107103;28;20075;-52
2023/10/12 13:13:56;;;;;;;8.57;3.85;;;;;;;;;;5111991;28;20483;-49
2023/10/12 13:16:22;;;;;;;7.82;4.55;;;;;;;;;;5104229;28;20050;-52
2023/10/12 13:18:49;;;;;;;7.55;4.32;;;;;;;;;;5107129;28;20542;-52
2023/10/12 13:21:17;;;;;;;9.02;4.50;;;;;;;;;;5111244;28;20431;-52
2023/10/12 13:23:43;;;;;;;10.70;4.45;;;;;;;;;;5110466;28;20074;-50
2023/10/12 13:26:12;;;;;;;8.80;4.40;;;;;;;;;;5108471;28;20050;-52
2023/10/12 13:28:40;;;;;;;10.30;3.90;;;;;;;;;;5108500;28;20062;-50
2023/10/12 13:31:10;;;;;;;10.75;5.18;;;;;;;;;;5109709;28;20035;-52
2023/10/12 13:33:37;;;;;;;8.38;4.13;;;;;;;;;;5110036;28;20047;-50
2023/10/12 13:36:05;;;;;;;10.32;4.95;;;;;;;;;;5105363;28;20036;-50
2023/10/12 13:38:34;;;;;;;9.98;4.20;;;;;;;;;;5109532;28;20462;-50
2023/10/12 13:41:02;;;;;;;15.00;4.75;;;;;;;;;;5109151;28;20097;-49
2023/10/12 13:43:30;;;;;;;11.70;4.30;;;;;;;;;;5108315;28;20046;-50
2023/10/12 13:45:58;;;;;;;7.47;4.50;;;;;;;;;;5110780;28;21099;-51
2023/10/12 13:48:28;;;;;;;8.20;4.07;;;;;;;;;;5099315;28;20040;-49
2023/10/12 13:50:59;;;;;;;;;;;;;;;;;;5101052;28;20036;-49
2023/10/12 13:53:26;;;;;;;9.50;3.95;;;;;;;;;;5108533;28;20413;-50
2023/10/12 13:55:53;;;;;;;7.63;4.43;;;;;;;;;;5104892;28;20036;-49
2023/10/12 13:58:23;;;;;;;9.07;4.40;;;;;;;;;;5107089;28;20076;-50
2023/10/12 14:00:51;;;;;;;9.48;4.13;;;;;;;;;;5096159;28;20067;-52
2023/10/12 14:03:23;;;;;;;7.40;3.65;;;;;;;;;;5112501;28;20055;-49
2023/10/12 14:05:51;;;;;;;11.70;4.13;;;;;;;;;;5112851;28;20055;-49
2023/10/12 14:08:18;;;;;;;9.00;4.32;;;;;;;;;;5107779;28;20130;-52
2023/10/12 14:10:44;;;;;;;9.68;3.70;;;;;;;;;;5110521;28;20389;-52
2023/10/12 14:13:13;;;;;;;8.07;3.42;;;;;;;;;;5102102;28;20047;-50
2023/10/12 14:15:43;;;;;;;8.32;3.60;;;;;;;;;;5107369;28;20124;-50
2023/10/12 14:18:11;;;;;;;12.05;3.60;;;;;;;;;;5112156;28;20572;-50
2023/10/12 14:20:39;;;;;;;9.68;3.58;;;;;;;;;;5102038;28;20046;-52
2023/10/12 14:23:07;;;;;;;10.00;4.20;;;;;;;;;;5111488;28;20520;-52
2023/10/12 14:25:38;;;;;;;9.95;3.92;;;;;;;;;;5108425;28;20458;-51
2023/10/12 14:28:06;;;;;;;8.93;3.90;;;;;;;;;;5107537;28;20044;-51
2023/10/12 14:30:33;;;;;;;14.98;4.40;;;;;;;;;;5109218;28;20045;-53
2023/10/12 14:33:02;;;;;;;9.55;4.10;;;;;;;;;;5102214;28;20040;-51
2023/10/12 14:35:29;;;;;;;9.53;4.27;;;;;;;;;;5103065;28;20039;-52
2023/10/12 14:37:56;;;;;;;9.23;3.92;;;;;;;;;;5110517;28;20046;-51
2023/10/12 14:40:31;;;;;;;9.82;5.03;;;;;;;;;;5110081;28;20154;-50
2023/10/12 14:42:58;;;;;;;11.88;3.55;;;;;;;;;;5105535;28;20063;-52
2023/10/12 14:45:25;;;;;;;7.20;3.85;;;;;;;;;;5105196;28;20474;-53
2023/10/12 14:47:52;;;;;;;8.07;3.88;;;;;;;;;;5108196;28;20047;-50
2023/10/12 14:50:20;;;;;;;11.35;5.15;;;;;;;;;;5106482;28;20150;-53
2023/10/12 14:52:52;;;;;;;9.15;4.32;;;;;;;;;;5109082;28;20118;-51
2023/10/12 14:55:20;;;;;;;9.38;3.35;;;;;;;;;;5103501;28;20046;-50
2023/10/12 14:57:50;;;;;;;8.70;4.00;;;;;;;;;;5108751;28;20039;-50
2023/10/12 15:00:23;;;;;;;8.25;3.85;;;;;;;;;;5107378;28;20422;-50
2023/10/12 15:02:50;;;;;;;10.82;4.28;;;;;;;;;;5099157;28;20044;-50
2023/10/12 15:05:17;;;;;;;8.45;3.83;;;;;;;;;;5103455;28;20044;-50
2023/10/12 15:07:44;;;;;;;8.38;4.00;;;;;;;;;;5105711;28;20127;-51
2023/10/12 15:10:13;;;;;;;7.40;3.90;;;;;;;;;;5103376;28;20051;-50
2023/10/12 15:12:43;;;;;;;8.48;3.90;;;;;;;;;;5108057;28;20498;-51
2023/10/12 15:15:15;;;;;;;11.80;4.20;;;;;;;;;;5108241;28;20074;-53
2023/10/12 15:17:42;;;;;;;8.98;4.05;;;;;;;;;;5108299;28;20539;-54
2023/10/12 15:20:15;;;;;;;9.05;3.70;;;;;;;;;;5105996;28;20442;-50
2023/10/12 15:22:44;;;;;;;9.40;4.45;;;;;;;;;;5097587;28;20044;-50
2023/10/12 15:25:12;;;;;;;11.37;4.23;;;;;;;;;;5108155;28;20048;-49
2023/10/12 15:27:38;;;;;;;10.93;4.10;;;;;;;;;;5103199;28;20047;-50
2023/10/12 15:30:07;;;;;;;8.88;3.95;;;;;;;;;;5109240;28;20036;-52
2023/10/12 15:32:40;;;;;;;9.35;4.30;;;;;;;;;;5104247;28;20079;-51
2023/10/12 15:35:10;;;;;;;8.43;4.38;;;;;;;;;;5103088;28;20131;-52
2023/10/12 15:37:40;;;;;;;12.15;4.10;;;;;;;;;;5110409;28;20101;-50
2023/10/12 15:40:09;;;;;;;10.35;3.78;;;;;;;;;;5112264;28;20134;-53
2023/10/12 15:42:36;;;;;;;12.68;4.55;;;;;;;;;;5108085;28;20103;-50